Home > Products > Valid Products > TAF

000
FTUS44 KAMA 222300 RRA
TAFAMA
TAF
KAMA 222343Z 2300/2324 17011KT P6SM FEW040 SCT150
     FM231300 17012KT P6SM SCT015 OVC035
     FM231600 18017KT P6SM BKN050=



000
FTUS44 KAMA 222300 RRA
TAFGUY
TAF
KGUY 222343Z 2300/2324 17013G20KT P6SM SCT040 BKN150
     FM230900 19013KT P6SM SCT025
     FM231500 19018KT P6SM BKN050=



000
FTUS44 KAMA 222300 RRA
TAFDHT
TAF
KDHT 222343Z 2300/2324 19011KT P6SM VCSH SCT030
     FM230900 20010KT 6SM BR OVC015
     FM231600 20018KT P6SM BKN050=



000
FTUS44 KAMA 222100 AAB
TAFDHT
TAF AMD
KDHT 222154Z 2222/2318 17015G25KT P6SM VCSH SCT025
     FM230100 18010KT P6SM BKN100
     FM231000 20010KT 6SM BR OVC020
     FM231500 20018KT P6SM BKN050=



000
FTUS44 KAMA 221800 AAA
TAFGUY
TAF AMD
KGUY 221829Z 2218/2318 17013G20KT P6SM BKN040
     FM230100 19010KT P6SM BKN250
     FM230900 19013KT P6SM SCT025=



000
FTUS44 KAMA 221800 AAA
TAFDHT
TAF AMD
KDHT 221814Z 2218/2318 17015G25KT P6SM SCT025
     FM230100 18010KT P6SM BKN100
     FM231000 20010KT 6SM BR OVC020
     FM231500 20018KT P6SM BKN050=



000
FTUS44 KAMA 221700
TAFGUY
TAF
KGUY 221720Z 2218/2318 15013G20KT P6SM BKN040
     FM230100 19010KT P6SM BKN250
     FM230900 19013KT P6SM SCT025=



000
FTUS44 KAMA 221700
TAFDHT
TAF
KDHT 221720Z 2218/2318 17015G25KT P6SM SCT025
      TEMPO 2218/2220 BKN025
     FM230100 18010KT P6SM BKN100
     FM231000 20010KT 6SM BR OVC020
     FM231500 20018KT P6SM BKN050=



000
FTUS44 KAMA 221700
TAFAMA
TAF
KAMA 221720Z 2218/2318 15015G20KT P6SM SCT100
     FM230100 16010KT P6SM BKN120
     FM231200 17012KT P6SM OVC025
     FM231500 18017KT P6SM OVC050=



000
FTUS44 KAMA 221600 AAC
TAFAMA
TAF AMD
KAMA 221644Z 2217/2312 15015KT P6SM SCT025 OVC080
     FM221800 15015KT P6SM OVC080
     FM230100 16010KT P6SM BKN120=



000
FTUS44 KAMA 221500 AAB
TAFAMA
TAF AMD
KAMA 221552Z 2216/2312 15015KT P6SM SCT025 OVC080
      TEMPO 2216/2218 BKN025
     FM221800 15014KT P6SM OVC080
     FM230100 16010KT P6SM BKN120=



000
FTUS44 KAMA 221400 AAA
TAFAMA
TAF AMD
KAMA 221407Z 2214/2312 14010KT P6SM SCT020 OVC080
      TEMPO 2214/2216 BKN020
     FM221700 15014KT P6SM OVC080
     FM230100 16010KT P6SM BKN120=



000
FTUS44 KAMA 221100
TAFAMA
TAF
KAMA 221120Z 2212/2312 14008KT P6SM FEW030 SCT050
     FM221700 16014KT P6SM BKN080
     FM230100 16010KT P6SM BKN120=



000
FTUS44 KAMA 221100
TAFDHT
TAF
KDHT 221120Z 2212/2312 15008KT P6SM BKN020
     FM221700 18015G25KT P6SM BKN070
     FM230100 18010KT P6SM BKN100=



000
FTUS44 KAMA 221100
TAFGUY
TAF
KGUY 221120Z 2212/2312 14008KT P6SM BKN050
     FM221600 18010G18KT P6SM BKN250
     FM230100 19010KT P6SM BKN250=



000
FTUS44 KAMA 220900 AAA
TAFAMA
TAF AMD
KAMA 220917Z 2209/2306 13008KT P6SM FEW025 SCT050
     FM221000 14008KT P6SM BKN015
     FM221700 16014KT P6SM BKN080
     FM230100 16010KT P6SM BKN120=



000
FTUS44 KAMA 220500
TAFAMA
TAF
KAMA 220520Z 2206/2306 13008KT P6SM SCT020 BKN100
      TEMPO 2206/2210 P6SM BKN020
     FM221000 14008KT P6SM BKN015
     FM221700 16014KT P6SM BKN080
     FM230100 16010KT P6SM BKN120=



000
FTUS44 KAMA 220500
TAFGUY
TAF
KGUY 220520Z 2206/2306 14008KT P6SM SCT100
     FM221600 18016KT P6SM BKN250
     FM230100 17010KT P6SM BKN250=



000
FTUS44 KAMA 220500
TAFDHT
TAF
KDHT 220520Z 2206/2306 14008KT P6SM BKN060
     FM221100 15008KT P6SM BKN015
     FM221700 18018G25KT P6SM BKN070
     FM230100 18010KT P6SM BKN100=



000
FTUS44 KAMA 220400 AAA
TAFAMA
TAF AMD
KAMA 220404Z 2204/2224 12008KT P6SM SCT020 BKN100
      TEMPO 2204/2208 P6SM BKN020
     FM220800 13008KT P6SM BKN015
     FM221700 16014KT P6SM BKN080=



000
FTUS44 KAMA 212300
TAFAMA
TAF
KAMA 212320Z 2200/2224 10008KT P6SM VCTS BKN090CB
      TEMPO 2200/2204 VRB25G35KT 3SM TSRA BKN020CB
     FM220400 10008KT P6SM BKN100
     FM221000 13008KT P6SM BKN015
     FM221700 16014KT P6SM BKN080=



000
FTUS44 KAMA 212300
TAFDHT
TAF
KDHT 212320Z 2200/2224 09008KT P6SM SCT100
     FM221100 14008KT P6SM BKN015
     FM221700 18018KT P6SM BKN070=



000
FTUS44 KAMA 212300
TAFGUY
TAF
KGUY 212320Z 2200/2224 10008KT P6SM SCT100
     FM221600 18016KT P6SM BKN250=



000
FTUS44 KAMA 212000 AAA
TAFAMA
TAF AMD
KAMA 212039Z 2121/2218 06011KT P6SM SHRA VCTS BKN050CB
      TEMPO 2121/2123 11015G25KT 1SM +TSRA BKN020CB OVC050
     FM220000 11010KT P6SM BKN060
     FM221100 14010KT P6SM SCT020 BKN200=



000
FTUS44 KAMA 211700
TAFAMA
TAF
KAMA 211740Z 2118/2218 08011KT P6SM VCTS SCT020 BKN050CB
     FM220000 11010KT P6SM BKN060
     FM221100 14010KT P6SM SCT020 BKN200=



000
FTUS44 KAMA 211700
TAFDHT
TAF
KDHT 211740Z 2118/2218 05013KT P6SM BKN020
     FM211900 07014KT P6SM VCTS SCT020 BKN060CB
     FM212300 12010KT P6SM BKN060
     FM221100 13008KT P6SM SCT020 BKN200=



000
FTUS44 KAMA 211700
TAFGUY
TAF
KGUY 211740Z 2118/2218 07014KT P6SM SCT060
     FM220100 13010KT P6SM BKN060=



000
FTUS44 KAMA 211600 AAA
TAFDHT
TAF AMD
KDHT 211624Z 2116/2212 05012G24KT P6SM BKN012
     FM211900 07014KT P6SM VCSH BKN060
     FM212300 12010KT P6SM BKN060=



000
FTUS44 KAMA 211400 AAA
TAFAMA
TAF AMD
KAMA 211438Z 2115/2212 28007KT P6SM -SHRA SCT060
     FM211600 06014KT P6SM VCSH BKN060
     FM212300 10010KT P6SM BKN060=



000
FTUS44 KAMA 211100
TAFGUY
TAF
KGUY 211124Z 2112/2212 36005KT P6SM SCT060
     FM211400 07014KT P6SM VCSH BKN060
     FM212200 13010KT P6SM BKN060=



000
FTUS44 KAMA 211100
TAFDHT
TAF
KDHT 211124Z 2112/2212 05010KT P6SM SCT060
     FM211600 07014KT P6SM VCSH BKN060
     FM212300 12010KT P6SM BKN060=



000
FTUS44 KAMA 211100
TAFAMA
TAF
KAMA 211124Z 2112/2212 02007KT P6SM SCT060
     FM211600 06014KT P6SM VCSH BKN060
     FM212300 10010KT P6SM BKN060=



000
FTUS44 KAMA 211000 AAB
TAFAMA
TAF AMD
KAMA 211007Z 2110/2206 24007KT 4SM BR BKN004
     FM211400 03007KT 6SM BR BKN012
     FM211600 05012G20KT P6SM VCSH SCT025 BKN050
     FM212300 08010KT P6SM BKN050=



000
FTUS44 KAMA 210800 AAA
TAFAMA
TAF AMD
KAMA 210822Z 2108/2206 24007KT 4SM BR SCT012 BKN025
     FM211600 05012G20KT P6SM VCSH SCT025 BKN050
     FM212300 08010KT P6SM BKN050=



000
FTUS44 KAMA 210500
TAFGUY
TAF
KGUY 210520Z 2106/2206 36005KT 6SM BR SCT025 BKN050
     FM211400 06012G20KT P6SM VCSH SCT025 BKN050
     FM212200 10010KT P6SM BKN050=



000
FTUS44 KAMA 210500
TAFDHT
TAF
KDHT 210520Z 2106/2206 36005KT 6SM BR SCT025 BKN050
     FM211100 05010KT 4SM BR SCT012 BKN025
     FM211600 05012G20KT P6SM VCSH SCT025 BKN050
     FM212300 08010KT P6SM BKN050=



000
FTUS44 KAMA 210500
TAFAMA
TAF
KAMA 210520Z 2106/2206 20005KT 6SM BR FEW025 SCT050
     FM211100 05010KT 4SM BR SCT012 BKN025
     FM211700 05012G20KT P6SM VCSH SCT025 BKN050
     FM212300 08010KT P6SM BKN050=



000
FTUS44 KAMA 202300 RRA
TAFAMA
TAF
KAMA 202342Z 2100/2124 15005KT P6SM SCT040
     FM210500 18005KT 4SM BR SCT005
     FM211300 05010KT P6SM BKN050=



000
FTUS44 KAMA 202300 RRA
TAFGUY
TAF
KGUY 202342Z 2100/2124 VRB04KT P6SM FEW060
     FM210800 04010KT P6SM VCTS SCT015CB BKN035
     FM211500 08016KT P6SM SCT050=



000
FTUS44 KAMA 202300 RRA
TAFDHT
TAF
KDHT 202342Z 2100/2124 15007KT P6SM FEW050
     FM210900 03010KT 4SM BR BKN015
     FM211700 07012G20KT P6SM SCT050=



000
FTUS44 KAMA 201700
TAFGUY
TAF
KGUY 201737Z 2018/2118 12007KT P6SM SCT060
     FM210800 02005KT P6SM VCSH BKN035=



000
FTUS44 KAMA 201700
TAFDHT
TAF
KDHT 201737Z 2018/2118 18009KT P6SM FEW200=



000
FTUS44 KAMA 201700
TAFAMA
TAF
KAMA 201737Z 2018/2118 15009KT P6SM BKN050
     FM210800 16005KT 5SM BR SCT005 BKN015=



000
FTUS44 KAMA 201500 AAC
TAFAMA
TAF AMD
KAMA 201525Z 2015/2112 17007KT P6SM SCT015
      TEMPO 2015/2017 BKN015
     FM201700 15009KT P6SM SCT050
     FM210900 16005KT 6SM BR SCT015 BKN025=



000
FTUS44 KAMA 201400 AAA
TAFDHT
TAF AMD
KDHT 201452Z 2015/2112 18009KT P6SM BKN050
     FM210900 33005KT P6SM SCT025=



000
FTUS44 KAMA 201300 AAB
TAFAMA
TAF AMD
KAMA 201340Z 2014/2112 17007KT P6SM SCT005
      TEMPO 2014/2015 BKN005
     FM201500 15009KT P6SM SCT050
     FM210900 16005KT 6SM BR SCT015 BKN025=



000
FTUS44 KAMA 201300 AAA
TAFAMA
TAF AMD
KAMA 201301Z 2013/2112 15009KT P6SM SCT050
      TEMPO 2013/2014 4SM BR
     FM210900 16005KT 6SM BR SCT015 BKN025=



000
FTUS44 KAMA 201100
TAFGUY
TAF
KGUY 201138Z 2012/2112 20006KT P6SM BKN035
     FM201600 12007KT P6SM SCT060
     FM210800 34005KT P6SM SCT035=



000
FTUS44 KAMA 201100
TAFDHT
TAF
KDHT 201138Z 2012/2112 21006KT 6SM BR OVC012
      TEMPO 2012/2014 1/4SM FG BKN003
     FM201600 14008KT P6SM BKN025
     FM201800 14010KT P6SM BKN050
     FM210900 33005KT P6SM SCT025=



000
FTUS44 KAMA 201100
TAFAMA
TAF
KAMA 201138Z 2012/2112 18008KT 6SM BR SCT006 OVC012
      TEMPO 2012/2014 4SM BR BKN004
     FM201600 20008KT P6SM BKN021
     FM201900 15009KT P6SM BKN050
     FM210900 16005KT 6SM BR SCT015 BKN025=



000
FTUS44 KAMA 201100 AAC
TAFAMA
TAF AMD
KAMA 201110Z 2011/2106 18008KT 6SM BR SCT006 OVC012
      TEMPO 2011/2014 4SM BR BKN006
     FM201600 20008KT P6SM BKN021
     FM201900 15009KT P6SM BKN050=



000
FTUS44 KAMA 201000 AAB
TAFAMA
TAF AMD
KAMA 201051Z 2011/2106 18008KT 6SM BR SCT006 OVC012
      TEMPO 2011/2014 2SM BR BKN003
     FM201600 20008KT P6SM BKN021
     FM201900 15009KT P6SM BKN050=



000
FTUS44 KAMA 201000 AAB
TAFDHT
TAF AMD
KDHT 201049Z 2011/2106 21006KT 6SM BR OVC012
      TEMPO 2011/2014 2SM BR BKN003
     FM201600 14008KT P6SM BKN025
     FM201800 14010KT P6SM BKN050=



000
FTUS44 KAMA 200800 AAA
TAFAMA
TAF AMD
KAMA 200810Z 2008/2106 16010KT P6SM BKN017
     FM200900 18008KT 3SM BR SCT006 OVC010
     FM201600 20008KT P6SM BKN020
     FM201900 15010KT P6SM BKN050=



000
FTUS44 KAMA 200800 AAA
TAFDHT
TAF AMD
KDHT 200810Z 2008/2106 20006KT 4SM BR OVC012
     FM201600 14008KT P6SM BKN025
     FM201800 14010KT P6SM BKN050=



000
FTUS44 KAMA 200500
TAFAMA
TAF
KAMA 200520Z 2006/2106 16010KT P6SM BKN060
     FM200900 18008KT 3SM BR SCT006 OVC010
     FM201600 20008KT P6SM BKN020
     FM201900 15010KT P6SM BKN050=



000
FTUS44 KAMA 200500
TAFDHT
TAF
KDHT 200520Z 2006/2106 16008KT P6SM SCT050
     FM200800 20006KT 4SM BR SCT008 OVC015
     FM201600 14008KT P6SM BKN025
     FM201800 14010KT P6SM BKN050=



000
FTUS44 KAMA 200500
TAFGUY
TAF
KGUY 200520Z 2006/2106 18010KT P6SM FEW060
     FM200900 20006KT P6SM BKN035
     FM201600 14008KT P6SM BKN060=



    US Dept of Commerce
    National Oceanic and Atmospheric Administration
    National Weather Service
    1325 East West Highway
    Silver Spring, MD 20910
    Page Author: NWS Internet Services Team
Disclaimer
Information Quality
Credits
Glossary
Privacy Policy
Freedom of Information Act (FOIA)
About Us
Career Opportunities